Time;durP1;ratioP1;P1;durP2;ratioP2;P2;SDS_P1;SDS_P2;PMS_P1;PMS_P2;Temp;Humidity;BMP_temperature;BMP_pressure;BME280_temperature;BME280_humidity;BME280_pressure;Samples;Min_cycle;Max_cycle;Signal;HPM_P1;HPM_P2
2022/05/28 00:03:30;;;;;;;0.88;0.38;;;14.70;44.50;;;12.36;49.07;100965.75;12243557;19;20030;-80
2022/05/28 00:07:32;;;;;;;0.57;0.35;;;14.50;44.40;;;12.37;48.84;100964.84;12243372;19;20062;-80
2022/05/28 00:11:41;;;;;;;0.70;0.60;;;14.70;44.60;;;12.36;49.03;100955.28;12243520;19;20045;-80
2022/05/28 00:15:43;;;;;;;0.93;0.60;;;14.60;44.70;;;12.29;49.09;100953.97;12244842;19;20037;-80
2022/05/28 00:19:45;;;;;;;0.98;0.50;;;14.60;44.70;;;12.07;49.10;100917.75;12242417;19;20018;-80
2022/05/28 00:23:47;;;;;;;1.08;0.55;;;14.50;44.80;;;12.35;49.06;100958.00;12241759;19;20019;-80
2022/05/28 00:27:48;;;;;;;3.80;0.40;;;14.40;44.80;;;12.35;49.22;100958.84;12241416;19;20021;-81
2022/05/28 00:31:50;;;;;;;1.20;0.60;;;14.50;44.90;;;12.36;49.15;100955.28;12242666;19;20021;-80
2022/05/28 00:35:52;;;;;;;0.50;0.50;;;14.70;44.80;;;12.25;49.36;100931.50;12243983;19;20029;-80
2022/05/28 00:39:54;;;;;;;1.15;0.55;;;14.50;44.90;;;12.21;49.34;100918.72;12242566;19;20003;-80
2022/05/28 00:43:55;;;;;;;2.80;0.45;;;14.40;45.00;;;12.31;49.40;100946.00;12241037;19;20022;-80
2022/05/28 00:48:02;;;;;;;1.60;0.50;;;14.50;45.00;;;12.02;49.56;100898.84;12241813;19;20018;-80
2022/05/28 00:52:08;;;;;;;1.85;0.50;;;14.40;45.20;;;12.14;49.58;100924.28;12238804;19;20014;-81
2022/05/28 00:56:11;;;;;;;0.32;0.32;;;14.40;45.20;;;12.18;49.57;100930.19;12240610;19;20337;-80
2022/05/28 01:00:19;;;;;;;0.90;0.40;;;14.40;45.20;;;12.10;49.72;100914.09;12242291;19;20522;-80
2022/05/28 01:04:27;;;;;;;3.08;0.98;;;14.40;45.40;;;12.10;49.84;100906.25;12240531;19;20030;-80
2022/05/28 01:09:01;;;;;;;2.38;0.75;;;14.40;45.30;;;12.26;49.82;100921.88;12239516;19;20014;-81
2022/05/28 01:13:19;;;;;;;2.50;0.65;;;14.40;45.50;;;12.13;49.93;100900.84;12240857;19;20028;-80
2022/05/28 01:17:49;;;;;;;2.45;0.80;;;14.40;45.50;;;12.24;50.08;100918.53;12241105;19;20501;-80
2022/05/28 01:22:22;;;;;;;1.40;0.88;;;14.40;45.70;;;12.17;49.83;100892.69;12239335;19;20078;-80
2022/05/28 01:26:52;;;;;;;3.30;0.98;;;14.40;45.60;;;12.29;50.00;100914.69;12239149;19;20011;-80
2022/05/28 01:30:56;;;;;;;1.38;0.60;;;14.20;45.30;;;12.28;49.69;100910.38;12232174;19;20348;-80
2022/05/28 01:35:00;;;;;;;1.65;0.60;;;14.40;45.20;;;12.20;49.68;100899.50;12237241;19;20461;-80
2022/05/28 01:39:05;;;;;;;1.65;0.70;;;14.40;45.20;;;12.03;49.83;100863.03;12240190;19;20384;-80
2022/05/28 01:43:16;;;;;;;0.60;0.50;;;14.40;45.10;;;12.25;50.01;100888.78;12238945;19;20078;-79
2022/05/28 01:47:19;;;;;;;3.08;0.82;;;14.40;45.40;;;12.18;49.81;100881.28;12237592;19;20002;-79
2022/05/28 01:51:27;;;;;;;3.55;1.08;;;14.20;45.00;;;12.14;49.95;100871.09;12238380;19;20731;-79
2022/05/28 01:55:32;;;;;;;2.40;0.60;;;14.30;45.20;;;12.15;49.88;100867.53;12233900;19;20018;-79
2022/05/28 01:59:34;;;;;;;2.25;0.65;;;14.40;45.10;;;12.08;49.90;100853.97;12238588;19;20014;-79
2022/05/28 02:03:44;;;;;;;2.40;0.80;;;14.20;45.10;;;12.03;50.06;100842.94;12238910;19;20503;-79
2022/05/28 02:07:45;;;;;;;2.72;0.77;;;14.30;45.10;;;12.00;49.97;100843.13;12249700;19;20014;-79
2022/05/28 02:12:19;;;;;;;2.83;0.77;;;14.30;45.20;;;12.19;50.20;100869.03;12248756;19;20038;-79
2022/05/28 02:17:03;;;;;;;1.45;0.50;;;14.30;45.30;;;12.09;50.15;100860.88;12249451;19;20018;-79
2022/05/28 02:21:19;;;;;;;2.75;0.60;;;14.30;45.40;;;11.92;50.10;100835.72;12249588;19;20070;-79
2022/05/28 02:25:29;;;;;;;1.67;0.75;;;14.20;45.20;;;12.05;50.08;100842.84;12247866;19;20026;-79
2022/05/28 02:29:32;;;;;;;1.00;0.60;;;14.30;45.20;;;11.96;50.14;100823.28;12247525;19;20737;-79
2022/05/28 02:33:34;;;;;;;2.22;0.82;;;14.20;45.10;;;11.99;50.20;100809.16;12246954;19;20014;-79
2022/05/28 02:37:36;;;;;;;1.38;0.70;;;14.10;45.20;;;11.96;50.12;100815.44;12247885;19;20018;-79
2022/05/28 02:41:38;;;;;;;1.50;0.68;;;14.20;45.20;;;11.98;50.24;100810.13;12247809;19;20042;-79
2022/05/28 02:45:40;;;;;;;1.38;0.60;;;14.30;45.30;;;12.03;50.28;100832.47;12248389;19;20034;-79
2022/05/28 02:49:42;;;;;;;3.60;1.08;;;14.30;45.20;;;12.01;50.29;100823.84;12246726;19;20011;-79
2022/05/28 02:53:44;;;;;;;1.88;0.63;;;14.20;45.10;;;11.94;50.14;100805.06;12247278;19;20018;-79
2022/05/28 02:57:45;;;;;;;3.50;0.80;;;14.20;45.20;;;11.81;50.23;100779.69;12245995;19;20039;-79
2022/05/28 03:01:47;;;;;;;0.63;0.40;;;14.10;45.20;;;11.87;50.12;100792.44;12247236;19;20011;-79
2022/05/28 03:05:51;;;;;;;2.45;0.88;;;14.30;45.40;;;12.10;50.20;100830.34;12245766;19;20010;-79
2022/05/28 03:09:53;;;;;;;1.20;0.63;;;14.30;45.50;;;12.12;50.23;100837.16;12246049;19;20014;-79
2022/05/28 03:13:54;;;;;;;2.67;0.52;;;14.10;45.20;;;12.03;50.25;100808.06;12243189;19;20010;-79
2022/05/28 03:17:59;;;;;;;2.50;0.75;;;14.10;45.40;;;12.16;50.25;100827.34;12244945;19;20014;-79
2022/05/28 03:22:01;;;;;;;6.30;0.97;;;14.30;45.40;;;12.10;50.30;100818.09;12245289;19;20014;-79
2022/05/28 03:26:13;;;;;;;2.15;0.70;;;14.30;45.50;;;12.06;50.33;100805.25;12245218;19;20033;-79
2022/05/28 03:30:15;;;;;;;0.73;0.50;;;14.30;45.70;;;12.14;50.29;100798.63;12243436;19;20037;-79
2022/05/28 03:34:17;;;;;;;1.80;1.00;;;14.40;45.50;;;12.00;50.46;100780.31;12244988;19;20011;-80
2022/05/28 03:38:18;;;;;;;1.08;0.43;;;14.20;45.40;;;12.14;50.29;100803.03;12245880;19;20353;-79
2022/05/28 03:42:20;;;;;;;1.40;0.75;;;14.30;45.40;;;11.87;50.54;100748.78;12243494;19;20476;-80
2022/05/28 03:46:35;;;;;;;1.15;0.50;;;14.40;45.50;;;12.27;50.72;100809.19;12245171;19;20024;-79
2022/05/28 03:50:37;;;;;;;1.95;0.57;;;14.40;45.60;;;12.22;50.32;100799.94;12241905;19;20018;-79
2022/05/28 03:54:43;;;;;;;2.03;0.63;;;14.40;45.50;;;12.33;50.54;100827.16;12240964;19;20007;-79
2022/05/28 03:58:44;;;;;;;2.28;0.82;;;14.40;45.60;;;12.26;50.38;100807.53;12242309;19;20372;-79
2022/05/28 04:02:46;;;;;;;1.73;0.60;;;14.50;45.70;;;12.10;50.51;100781.44;12242810;19;20017;-80
2022/05/28 04:06:48;;;;;;;5.55;0.82;;;14.40;45.70;;;12.22;50.66;100786.84;12241503;19;20030;-79
2022/05/28 04:10:49;;;;;;;1.13;0.50;;;14.30;45.50;;;12.34;50.71;100797.44;12241531;19;20477;-79
2022/05/28 04:14:51;;;;;;;0.98;0.60;;;14.50;45.70;;;12.34;50.64;100793.94;12240654;19;20037;-79
2022/05/28 04:18:53;;;;;;;1.88;0.60;;;14.50;45.70;;;12.36;50.56;100798.16;12243625;19;20070;-80
2022/05/28 04:22:54;;;;;;;0.73;0.57;;;14.50;45.50;;;12.41;50.53;100808.34;12240648;19;20344;-79
2022/05/28 04:26:56;;;;;;;2.33;0.93;;;14.40;45.50;;;12.42;50.64;100811.81;12240943;19;20468;-79
2022/05/28 04:30:58;;;;;;;2.50;0.68;;;14.50;45.60;;;12.37;50.37;100792.00;12240898;19;20022;-80
2022/05/28 04:35:00;;;;;;;1.02;0.80;;;14.60;45.50;;;12.17;50.50;100756.53;12240750;19;20109;-80
2022/05/28 04:39:03;;;;;;;1.23;0.70;;;14.50;45.60;;;12.42;50.42;100780.38;12241019;19;20066;-79
2022/05/28 04:43:05;;;;;;;1.25;0.70;;;14.60;45.60;;;12.55;50.59;100799.63;12240514;19;20015;-79
2022/05/28 04:47:07;;;;;;;2.90;0.60;;;14.70;45.60;;;12.47;50.68;100779.16;12240973;19;20029;-79
2022/05/28 04:51:08;;;;;;;1.58;0.52;;;14.70;45.80;;;12.48;50.83;100773.00;12241083;19;20019;-79
2022/05/28 04:55:12;;;;;;;3.42;1.00;;;14.70;46.10;;;12.41;50.97;100779.53;12240656;19;20017;-80
2022/05/28 04:59:14;;;;;;;5.25;0.77;;;14.70;46.40;;;12.45;50.95;100816.84;12236680;19;20022;-80
2022/05/28 05:03:16;;;;;;;0.85;0.75;;;14.70;46.40;;;12.24;50.95;100822.47;12239732;19;20070;-79
2022/05/28 05:07:17;;;;;;;2.15;0.68;;;14.40;46.40;;;12.04;51.38;100788.81;12240739;19;20523;-77
2022/05/28 05:11:19;;;;;;;1.70;0.57;;;14.50;46.90;;;12.13;51.70;100811.81;12240028;19;20014;-77
2022/05/28 05:15:21;;;;;;;0.60;0.45;;;14.50;47.20;;;12.13;51.75;100812.66;12237558;19;20023;-77
2022/05/28 05:19:23;;;;;;;1.13;0.65;;;14.30;47.40;;;12.15;51.61;100799.47;12239802;19;20519;-77
2022/05/28 05:23:24;;;;;;;1.25;0.50;;;14.40;47.30;;;12.27;51.70;100821.47;12237150;19;20353;-77
2022/05/28 05:27:26;;;;;;;1.08;0.98;;;14.30;47.40;;;12.23;51.86;100812.09;12238433;19;20480;-77
2022/05/28 05:31:28;;;;;;;0.73;0.43;;;14.30;47.40;;;11.76;51.77;100761.66;12239260;19;20495;-77
2022/05/28 05:35:29;;;;;;;0.70;0.50;;;14.40;47.50;;;12.20;51.79;100823.59;12233907;19;20019;-77
2022/05/28 05:39:31;;;;;;;1.38;0.40;;;14.40;47.40;;;11.89;52.02;100772.25;12242194;19;20495;-79
2022/05/28 05:43:33;;;;;;;1.45;0.47;;;14.30;47.20;;;12.17;51.99;100802.84;12247282;19;20078;-78
2022/05/28 05:47:35;;;;;;;2.10;0.63;;;14.40;47.70;;;12.29;52.11;100809.13;12250634;19;20373;-81
2022/05/28 05:51:44;;;;;;;1.05;0.35;;;14.40;47.80;;;12.33;52.06;100807.97;12245989;19;20034;-81
2022/05/28 05:55:47;;;;;;;0.80;0.38;;;14.40;47.90;;;12.34;51.87;100804.41;12249449;19;20471;-79
2022/05/28 05:59:49;;;;;;;2.05;0.70;;;14.50;47.90;;;12.38;51.93;100809.38;12249811;19;20023;-78
2022/05/28 06:03:50;;;;;;;1.80;0.60;;;14.60;47.60;;;12.49;51.96;100819.19;12247218;19;20069;-78
2022/05/28 06:07:52;;;;;;;0.88;0.70;;;14.60;47.30;;;12.54;51.99;100837.25;12248748;19;20018;-78
2022/05/28 06:11:54;;;;;;;1.17;0.55;;;14.60;47.20;;;12.53;51.92;100832.94;12246696;19;20459;-82
2022/05/28 06:15:55;;;;;;;1.13;0.60;;;14.60;47.50;;;12.60;52.13;100835.09;12247978;19;20371;-79
2022/05/28 06:19:57;;;;;;;0.40;0.40;;;14.50;47.30;;;12.44;51.85;100805.53;12249243;19;20007;-79
2022/05/28 06:24:02;;;;;;;0.75;0.70;;;14.90;47.20;;;12.50;52.07;100833.13;12246059;19;20042;-79
2022/05/28 06:28:04;;;;;;;0.77;0.70;;;15.00;47.50;;;12.37;52.02;100809.50;12249227;19;20044;-81
2022/05/28 06:32:06;;;;;;;1.50;0.60;;;14.70;46.90;;;12.57;52.02;100843.13;12246843;19;20023;-86
2022/05/28 06:36:11;;;;;;;0.32;0.32;;;14.70;47.10;;;12.68;52.01;100863.44;12248040;19;20031;-86
2022/05/28 06:40:13;;;;;;;2.67;0.60;;;14.60;46.90;;;12.51;51.82;100834.84;12249915;19;20037;-89
2022/05/28 06:44:15;;;;;;;1.58;0.68;;;14.80;46.70;;;12.70;51.92;100853.72;12245727;19;20011;-86
2022/05/28 06:48:17;;;;;;;0.77;0.57;;;14.80;46.70;;;12.69;51.96;100845.94;12248286;19;20006;-84
2022/05/28 06:52:18;;;;;;;2.85;0.80;;;14.80;46.70;;;12.54;51.80;100805.81;12242652;19;20033;-84
2022/05/28 06:56:20;;;;;;;2.75;0.80;;;14.90;46.90;;;12.68;51.77;100795.31;12245148;19;20014;-83
2022/05/28 07:00:21;;;;;;;3.90;0.68;;;14.90;46.90;;;12.91;51.69;100808.72;12225530;19;20002;-87
2022/05/28 07:04:23;;;;;;;0.68;0.43;;;15.00;46.70;;;13.16;51.81;100827.22;12244430;19;20018;-84
2022/05/28 07:08:24;;;;;;;2.95;0.80;;;15.10;47.00;;;13.38;51.71;100821.44;12245287;19;20011;-87
2022/05/28 07:12:26;;;;;;;1.30;0.47;;;15.30;47.20;;;13.58;51.49;100838.50;12238599;19;20018;-86
2022/05/28 07:16:27;;;;;;;4.50;0.70;;;15.40;47.00;;;13.76;51.62;100844.31;12242979;19;20014;-84
2022/05/28 07:20:29;;;;;;;2.72;0.77;;;15.50;46.40;;;13.76;51.18;100841.69;12242642;19;20023;-86
2022/05/28 07:24:30;;;;;;;1.13;0.73;;;15.70;46.20;;;13.72;51.32;100830.56;12241011;19;20369;-86
2022/05/28 07:28:35;;;;;;;0.63;0.45;;;15.60;45.90;;;13.63;51.30;100801.44;12241746;19;20006;-84
2022/05/28 07:32:37;;;;;;;1.87;0.57;;;15.80;46.10;;;13.85;51.17;100843.72;12241477;19;20115;-86
2022/05/28 07:36:38;;;;;;;3.30;1.15;;;15.70;45.90;;;13.89;51.10;100815.47;12242517;19;20029;-86
2022/05/28 07:40:40;;;;;;;2.17;0.70;;;15.90;45.80;;;14.03;51.07;100841.63;12247190;19;20010;-85
2022/05/28 07:44:42;;;;;;;0.95;0.57;;;16.00;45.50;;;14.02;50.85;100828.59;12239456;19;20018;-84
2022/05/28 07:48:44;;;;;;;0.57;0.40;;;16.10;45.70;;;14.08;51.21;100825.56;12240795;19;20006;-85
2022/05/28 07:52:48;;;;;;;2.40;0.93;;;16.00;45.60;;;14.29;51.00;100842.47;12238361;19;20039;-87
2022/05/28 07:56:50;;;;;;;0.52;0.52;;;16.20;45.60;;;14.44;50.92;100853.69;12244275;19;20034;-87
2022/05/28 08:00:52;;;;;;;1.55;0.55;;;16.10;45.50;;;14.49;50.83;100851.59;12243173;19;20378;-87
2022/05/28 08:04:54;;;;;;;4.18;0.70;;;16.40;45.30;;;14.34;50.74;100829.03;12239513;19;20014;-84
2022/05/28 08:08:55;;;;;;;1.00;0.60;;;16.50;45.00;;;14.30;50.50;100833.63;12242474;19;20432;-85
2022/05/28 08:13:07;;;;;;;0.77;0.60;;;16.30;44.50;;;14.33;50.51;100832.56;12238202;19;20021;-86
2022/05/28 08:17:09;;;;;;;3.15;0.80;;;16.50;44.60;;;14.31;50.42;100821.31;12242735;19;20014;-86
2022/05/28 08:25:32;;;;;;;1.38;0.57;;;16.50;44.60;;;14.69;50.29;100849.38;12238041;19;20011;-86
2022/05/28 08:29:33;;;;;;;4.35;1.67;;;16.60;44.50;;;14.71;50.17;100853.56;12241123;19;20014;-83
2022/05/28 08:33:35;;;;;;;0.52;0.50;;;16.70;44.50;;;14.87;50.01;100844.59;12239016;19;20010;-85
2022/05/28 08:37:37;;;;;;;1.30;0.63;;;16.80;44.40;;;14.97;49.92;100843.84;12240400;19;20017;-85
2022/05/28 08:41:59;;;;;;;4.25;0.90;;;16.80;44.40;;;15.04;49.76;100846.84;12241841;19;20018;-84
2022/05/28 08:46:03;;;;;;;1.45;0.50;;;16.90;43.70;;;14.97;49.52;100821.97;12240794;19;20029;-88
2022/05/28 08:50:07;;;;;;;2.08;0.60;;;16.90;43.60;;;15.15;49.61;100838.19;12240066;19;20515;-86
2022/05/28 08:54:31;;;;;;;2.60;0.93;;;17.10;43.60;;;15.16;49.50;100838.09;12239279;19;20014;-87
2022/05/28 08:58:34;;;;;;;3.15;1.40;;;17.10;43.30;;;15.01;49.64;100811.13;12241967;19;20052;-86
2022/05/28 09:02:48;;;;;;;1.20;0.55;;;17.20;43.50;;;15.13;49.20;100824.34;12237068;19;20019;-80
2022/05/28 09:06:55;;;;;;;2.63;0.80;;;17.30;43.30;;;15.24;49.49;100827.00;12238539;19;20010;-79
2022/05/28 09:11:05;;;;;;;1.10;0.70;;;17.30;43.50;;;15.40;49.11;100818.84;12238700;19;20023;-79
2022/05/28 09:15:08;;;;;;;1.63;0.85;;;17.30;43.30;;;15.69;49.07;100851.75;12236256;19;20109;-79
2022/05/28 09:19:19;;;;;;;2.33;0.63;;;17.50;43.30;;;15.58;48.90;100848.19;12237934;19;20021;-80
2022/05/28 09:23:20;;;;;;;1.75;0.77;;;17.60;43.30;;;15.56;48.98;100860.66;12237865;19;20018;-80
2022/05/28 09:27:44;;;;;;;2.63;0.98;;;17.60;43.00;;;15.56;49.12;100864.13;12238130;19;20018;-79
2022/05/28 09:32:06;;;;;;;1.98;1.00;;;17.60;42.80;;;15.57;48.65;100854.44;12237106;19;20011;-80
2022/05/28 09:36:52;;;;;;;3.60;0.90;;;17.50;42.10;;;15.65;48.61;100867.88;12233931;19;20015;-79
2022/05/28 09:41:24;;;;;;;2.25;0.70;;;17.60;42.40;;;15.64;48.44;100867.03;12236214;19;20018;-80
2022/05/28 09:46:04;;;;;;;2.67;0.90;;;17.70;41.80;;;15.58;48.44;100867.50;12233611;19;20011;-80
2022/05/28 09:50:27;;;;;;;3.97;0.90;;;17.60;41.80;;;15.56;48.32;100845.69;12238506;19;20009;-79
2022/05/28 09:54:33;;;;;;;0.93;0.70;;;17.60;41.80;;;15.68;48.53;100855.34;12233758;19;20500;-80
2022/05/28 09:58:40;;;;;;;2.20;0.68;;;17.60;42.00;;;15.84;48.12;100862.94;12237295;19;20007;-80
2022/05/28 10:07:10;;;;;;;1.17;1.08;;;17.90;42.30;;;16.02;48.07;100836.16;12237749;19;20495;-80
2022/05/28 10:11:18;;;;;;;2.17;1.20;;;17.90;42.30;;;16.40;47.95;100842.91;12235494;19;20014;-80
2022/05/28 10:15:28;;;;;;;1.13;0.75;;;18.20;42.30;;;16.68;47.91;100860.88;12234886;19;20013;-80
2022/05/28 10:19:40;;;;;;;1.65;0.60;;;18.30;42.00;;;16.41;47.44;100805.03;12236472;19;20034;-80
2022/05/28 10:23:52;;;;;;;3.22;0.70;;;18.50;41.30;;;16.67;47.41;100868.91;12235558;19;20025;-79
2022/05/28 10:27:54;;;;;;;0.77;0.73;;;18.30;41.30;;;16.72;47.87;100867.59;12245713;19;20356;-80
2022/05/28 10:32:00;;;;;;;1.92;0.80;;;18.60;41.80;;;16.81;47.80;100858.97;12246374;19;20029;-80
2022/05/28 10:36:14;;;;;;;1.73;0.80;;;18.70;42.00;;;16.75;47.80;100829.59;12247072;19;20085;-80
2022/05/28 10:40:15;;;;;;;0.50;0.50;;;18.80;42.30;;;17.15;47.76;100872.13;12249638;19;20010;-80
2022/05/28 10:44:17;;;;;;;1.05;0.60;;;18.90;42.30;;;17.31;47.63;100866.44;12246170;19;20023;-80
2022/05/28 10:48:37;;;;;;;2.95;0.70;;;18.90;42.20;;;17.22;47.22;100832.88;12247803;19;20019;-80
2022/05/28 10:53:20;;;;;;;1.67;0.75;;;19.10;41.70;;;17.42;47.42;100860.28;12242850;19;20364;-80
2022/05/28 10:57:47;;;;;;;2.40;0.85;;;19.20;41.50;;;17.54;47.00;100859.25;12247325;19;20503;-80
2022/05/28 11:02:14;;;;;;;1.08;0.70;;;19.30;41.70;;;17.62;46.91;100850.72;12248755;19;20476;-80
2022/05/28 11:07:01;;;;;;;2.47;0.85;;;19.40;41.30;;;17.67;47.01;100832.69;12247241;19;20010;-80
2022/05/28 11:11:46;;;;;;;2.60;1.08;;;19.60;41.50;;;17.95;46.89;100852.34;12239222;19;20026;-80
2022/05/28 11:16:21;;;;;;;5.05;0.88;;;19.70;41.10;;;18.09;46.52;100848.53;12245194;19;20014;-80
2022/05/28 11:21:01;;;;;;;1.42;0.85;;;19.80;41.20;;;18.06;46.52;100852.28;12247678;19;20025;-80
2022/05/28 11:25:15;;;;;;;1.77;0.95;;;19.90;40.40;;;17.83;46.40;100845.47;12243095;19;20086;-80
2022/05/28 11:30:06;;;;;;;1.67;0.85;;;19.90;40.40;;;17.80;46.48;100849.22;12245330;19;20021;-80
2022/05/28 11:34:27;;;;;;;2.80;0.98;;;19.90;40.50;;;17.92;46.50;100848.16;12243915;19;20023;-85
2022/05/28 11:38:59;;;;;;;1.30;0.75;;;19.80;40.20;;;18.14;46.30;100841.91;12241747;19;20041;-79
2022/05/28 11:43:12;;;;;;;2.05;0.77;;;19.90;40.00;;;18.14;45.90;100817.28;12244588;19;20019;-79
2022/05/28 11:47:48;;;;;;;3.55;1.00;;;19.90;39.70;;;18.21;45.53;100826.38;12242992;19;20475;-85
2022/05/28 11:52:07;;;;;;;2.17;1.20;;;20.10;39.40;;;18.27;45.71;100846.97;12242021;19;20028;-82
2022/05/28 11:56:28;;;;;;;2.17;0.90;;;20.20;39.60;;;18.23;45.55;100813.03;12243426;19;20027;-81
2022/05/28 12:00:37;;;;;;;2.25;1.17;;;20.40;39.80;;;18.40;45.36;100838.84;12243856;19;20034;-85
2022/05/28 12:04:43;;;;;;;4.35;1.20;;;20.10;39.20;;;18.13;45.37;100792.66;12240651;19;20022;-82
2022/05/28 12:08:58;;;;;;;1.70;0.70;;;20.40;39.40;;;18.31;44.90;100858.16;12243236;19;20017;-83
2022/05/28 12:13:02;;;;;;;4.90;0.85;;;20.30;39.40;;;17.81;45.27;100826.28;12240466;19;20036;-84
2022/05/28 12:17:25;;;;;;;1.75;1.00;;;20.10;39.30;;;17.95;45.85;100859.47;12242130;19;20015;-83
2022/05/28 12:21:31;;;;;;;1.42;0.60;;;20.10;39.60;;;17.90;46.00;100857.19;12241412;19;20014;-86
2022/05/28 12:25:38;;;;;;;2.70;0.85;;;20.00;40.00;;;18.11;45.89;100843.97;12238786;19;20011;-81
2022/05/28 12:30:01;;;;;;;1.92;0.75;;;20.00;40.10;;;18.24;45.69;100860.47;12242354;19;20015;-82
2022/05/28 12:34:03;;;;;;;2.53;0.90;;;20.00;40.30;;;18.28;45.60;100832.81;12235753;19;20042;-80
2022/05/28 12:38:10;;;;;;;1.15;0.63;;;20.00;40.30;;;18.50;45.56;100844.19;12240554;19;20032;-81
2022/05/28 12:42:30;;;;;;;1.42;0.65;;;20.20;40.40;;;18.62;45.47;100831.69;12237360;19;20019;-81
2022/05/28 12:46:47;;;;;;;5.88;0.98;;;20.30;40.50;;;18.76;45.23;100826.03;12240039;19;20014;-83
2022/05/28 12:51:03;;;;;;;1.15;0.77;;;20.50;40.60;;;18.95;45.30;100838.47;12239650;19;20016;-85
2022/05/28 12:55:11;;;;;;;2.38;0.88;;;20.60;40.00;;;18.93;45.20;100848.34;12241104;19;20031;-83
2022/05/28 12:59:21;;;;;;;1.83;1.00;;;20.70;39.80;;;18.87;45.09;100884.13;12240407;19;20014;-84
2022/05/28 13:03:28;;;;;;;4.63;1.13;;;20.70;40.10;;;18.49;45.80;100887.44;12240110;19;20077;-84
2022/05/28 13:07:41;;;;;;;0.80;0.65;;;20.70;40.80;;;18.04;46.16;100888.59;12237455;19;20019;-84
2022/05/28 13:12:13;;;;;;;0.60;0.60;;;20.40;40.60;;;17.40;46.74;100827.88;12238418;19;21560;-83
2022/05/28 13:16:55;;;;;;;1.30;0.60;;;20.10;41.00;;;17.60;46.58;100874.59;12240072;19;20014;-83
2022/05/28 13:21:24;;;;;;;1.05;0.65;;;19.90;41.20;;;17.68;46.60;100888.00;12239611;19;20034;-82
2022/05/28 13:26:01;;;;;;;2.10;0.73;;;19.70;41.00;;;17.83;46.31;100858.69;12234912;19;20010;-81
2022/05/28 13:30:26;;;;;;;1.33;0.70;;;19.70;41.10;;;18.16;45.98;100865.56;12239680;19;20007;-83
2022/05/28 13:34:30;;;;;;;0.82;0.60;;;19.80;41.00;;;18.31;45.67;100848.41;12238027;19;20022;-83
2022/05/28 13:38:42;;;;;;;0.98;0.63;;;20.00;41.00;;;18.40;45.45;100836.19;12227142;19;20007;-83
2022/05/28 13:42:45;;;;;;;0.80;0.65;;;20.20;40.70;;;18.47;45.75;100837.34;12236006;19;20015;-84
2022/05/28 13:46:55;;;;;;;1.08;0.40;;;20.20;40.60;;;18.47;44.96;100824.13;12235917;19;20038;-83
2022/05/28 13:51:02;;;;;;;1.30;0.93;;;20.40;39.60;;;18.58;44.76;100850.47;12236965;19;20014;-82
2022/05/28 13:55:07;;;;;;;2.83;1.10;;;20.40;39.50;;;18.32;45.04;100804.28;12236453;19;20480;-82
2022/05/28 13:59:34;;;;;;;1.23;0.70;;;20.50;39.40;;;18.55;44.64;100856.03;12235303;19;20014;-82
2022/05/28 14:03:39;;;;;;;2.47;0.50;;;20.70;39.40;;;18.63;44.68;100859.78;12246017;19;20022;-83
2022/05/28 14:07:42;;;;;;;1.77;0.68;;;20.50;38.90;;;18.48;44.63;100859.34;12247591;19;20483;-83
2022/05/28 14:11:48;;;;;;;1.77;0.88;;;20.50;39.00;;;18.67;44.65;100863.88;12245858;19;20490;-81
2022/05/28 14:15:53;;;;;;;2.58;0.50;;;20.50;39.10;;;18.77;44.24;100860.31;12249626;19;20015;-82
2022/05/28 14:19:57;;;;;;;2.03;0.80;;;20.50;38.90;;;18.95;44.26;100881.66;12246901;19;20384;-81
2022/05/28 14:24:14;;;;;;;3.22;0.70;;;20.60;38.90;;;18.98;43.85;100878.75;12245803;19;20022;-82
2022/05/28 14:28:20;;;;;;;4.63;1.13;;;20.60;38.80;;;18.86;43.98;100863.94;12247228;19;20352;-82
2022/05/28 14:32:33;;;;;;;1.48;0.68;;;20.60;38.60;;;18.81;44.09;100862.69;12246449;19;20073;-82
2022/05/28 14:36:38;;;;;;;0.63;0.55;;;20.80;38.80;;;18.59;44.33;100819.56;12244810;19;20022;-82
2022/05/28 14:40:49;;;;;;;1.50;0.60;;;20.60;38.90;;;18.88;44.35;100856.72;12248324;19;20111;-82
2022/05/28 14:44:51;;;;;;;2.25;0.70;;;20.80;39.10;;;19.06;44.23;100874.59;12243164;19;20010;-83
2022/05/28 14:49:06;;;;;;;1.52;0.68;;;20.80;39.10;;;19.05;44.00;100862.34;12245172;19;20495;-81
2022/05/28 14:53:13;;;;;;;2.38;0.93;;;20.90;39.10;;;19.01;44.18;100862.63;12242884;19;20034;-81
2022/05/28 14:57:28;;;;;;;3.25;0.98;;;20.90;38.90;;;18.93;44.23;100891.56;12245375;19;20022;-81
2022/05/28 15:01:34;;;;;;;2.92;0.75;;;20.90;39.10;;;18.51;44.47;100848.50;12245752;19;20021;-81
2022/05/28 15:05:36;;;;;;;2.53;0.82;;;20.80;39.10;;;18.42;44.66;100884.50;12240563;19;20472;-81
2022/05/28 15:09:50;;;;;;;2.22;0.70;;;20.70;39.30;;;18.32;44.30;100904.75;12242868;19;20026;-82
2022/05/28 15:14:33;;;;;;;3.35;0.80;;;20.50;39.10;;;18.00;44.34;100879.25;12241555;19;20048;-81
2022/05/28 15:18:36;;;;;;;4.18;0.98;;;20.20;38.40;;;17.92;44.41;100913.41;12243117;19;20014;-81
2022/05/28 15:22:38;;;;;;;4.38;1.00;;;20.00;38.20;;;17.62;44.24;100887.69;12246150;19;20019;-81
2022/05/28 15:26:40;;;;;;;2.30;1.10;;;20.00;38.50;;;17.69;44.24;100916.13;12244887;19;20031;-81
2022/05/28 15:30:42;;;;;;;3.60;1.10;;;19.80;38.60;;;17.50;44.29;100904.53;12242238;19;20011;-81
2022/05/28 15:34:45;;;;;;;1.45;0.90;;;19.70;38.60;;;17.43;44.47;100898.91;12242312;19;20002;-81
2022/05/28 15:38:46;;;;;;;2.10;0.82;;;19.50;38.70;;;17.27;44.30;100867.63;12242178;19;20035;-82
2022/05/28 15:42:49;;;;;;;1.73;0.57;;;19.60;38.90;;;17.34;44.28;100884.66;12124967;19;20019;-82
2022/05/28 15:46:50;;;;;;;2.25;0.80;;;19.50;38.90;;;17.44;44.23;100900.59;12092606;19;20286;-82
2022/05/28 15:50:52;;;;;;;3.40;0.85;;;19.50;39.00;;;17.53;44.27;100915.69;12094642;19;20025;-83
2022/05/28 16:00:17;;;;;;;3.47;0.60;;;19.50;38.90;;;17.52;44.27;100907.88;12244924;19;20070;-82
2022/05/28 16:04:18;;;;;;;1.75;0.70;;;19.50;39.00;;;17.44;44.26;100914.66;12241009;19;20014;-81
2022/05/28 16:08:39;;;;;;;1.73;0.95;;;19.50;39.20;;;17.31;44.50;100921.00;12244207;19;20007;-82
2022/05/28 16:12:44;;;;;;;3.17;0.80;;;19.40;39.50;;;17.07;45.01;100897.44;12238898;19;20082;-82
2022/05/28 16:16:45;;;;;;;1.03;0.63;;;19.30;39.90;;;17.08;44.86;100917.59;12242241;19;20388;-80
2022/05/28 16:20:47;;;;;;;1.92;0.77;;;19.30;39.80;;;17.05;44.86;100931.88;12243757;19;20348;-81
2022/05/28 16:24:49;;;;;;;2.95;0.77;;;19.00;39.70;;;16.95;44.94;100925.63;12237293;19;20029;-80
2022/05/28 16:28:54;;;;;;;2.30;0.70;;;18.90;39.60;;;16.57;44.81;100874.88;12240176;19;20018;-81
2022/05/28 16:32:56;;;;;;;0.45;0.45;;;18.80;39.40;;;16.76;45.04;100927.03;12238876;19;20014;-81
2022/05/28 16:36:58;;;;;;;2.53;0.70;;;19.20;39.90;;;16.60;44.93;100916.84;12241131;19;20014;-80
2022/05/28 16:41:00;;;;;;;0.40;0.40;;;18.90;39.70;;;16.70;44.95;100931.97;12242446;19;20525;-81
2022/05/28 16:45:02;;;;;;;2.50;0.60;;;18.80;39.90;;;16.74;45.03;100936.88;12239118;19;20037;-81
2022/05/28 16:49:03;;;;;;;2.17;0.55;;;18.70;39.80;;;16.64;44.72;100932.44;12239416;19;20018;-81
2022/05/28 16:53:05;;;;;;;2.17;0.60;;;18.60;39.80;;;16.52;44.97;100921.03;12240841;19;20014;-81
2022/05/28 16:57:10;;;;;;;1.65;0.40;;;18.50;39.80;;;16.53;45.08;100943.81;12236643;19;20431;-80
2022/05/28 17:01:12;;;;;;;0.65;0.43;;;18.60;39.80;;;16.53;44.90;100936.75;12240582;19;20112;-81
2022/05/28 17:05:14;;;;;;;1.88;0.70;;;18.50;39.90;;;16.50;44.95;100931.72;12237250;19;20029;-80
2022/05/28 17:09:16;;;;;;;1.58;0.70;;;18.60;40.00;;;16.33;45.11;100909.25;12240121;19;20078;-81
2022/05/28 17:13:24;;;;;;;3.40;0.85;;;18.60;40.10;;;16.67;44.89;100953.31;12237367;19;20026;-81
2022/05/28 17:17:25;;;;;;;2.38;0.77;;;18.50;40.20;;;16.55;44.99;100926.94;12237416;19;20110;-81